sensor_id;sensor_type;location;lat;lon;timestamp;temperature;humidity
66422;DHT22;53228;51.380;0.098;2023-09-08T00:00:51;18.50;99.90
66422;DHT22;53228;51.380;0.098;2023-09-08T00:03:18;18.50;99.90
66422;DHT22;53228;51.380;0.098;2023-09-08T00:05:49;18.50;99.90
66422;DHT22;53228;51.380;0.098;2023-09-08T00:08:17;18.50;99.90
66422;DHT22;53228;51.380;0.098;2023-09-08T00:10:45;18.40;99.90
66422;DHT22;53228;51.380;0.098;2023-09-08T00:13:13;18.40;99.90
66422;DHT22;53228;51.380;0.098;2023-09-08T00:15:41;18.30;99.90
66422;DHT22;53228;51.380;0.098;2023-09-08T00:18:09;18.30;99.90
66422;DHT22;53228;51.380;0.098;2023-09-08T00:20:36;18.30;99.90
66422;DHT22;53228;51.380;0.098;2023-09-08T00:23:04;18.30;99.90
66422;DHT22;53228;51.380;0.098;2023-09-08T00:25:31;18.30;99.90
66422;DHT22;53228;51.380;0.098;2023-09-08T00:27:59;18.20;99.90
66422;DHT22;53228;51.380;0.098;2023-09-08T00:30:27;18.20;99.90
66422;DHT22;53228;51.380;0.098;2023-09-08T00:32:55;18.20;99.90
66422;DHT22;53228;51.380;0.098;2023-09-08T00:35:22;18.10;99.90
66422;DHT22;53228;51.380;0.098;2023-09-08T00:37:50;18.10;99.90
66422;DHT22;53228;51.380;0.098;2023-09-08T00:40:18;18.10;99.90
66422;DHT22;53228;51.380;0.098;2023-09-08T00:42:45;18.10;99.90
66422;DHT22;53228;51.380;0.098;2023-09-08T00:45:14;18.00;99.90
66422;DHT22;53228;51.380;0.098;2023-09-08T00:47:42;18.00;99.90
66422;DHT22;53228;51.380;0.098;2023-09-08T00:50:10;18.00;99.90
66422;DHT22;53228;51.380;0.098;2023-09-08T00:52:38;18.00;99.90
66422;DHT22;53228;51.380;0.098;2023-09-08T00:55:07;17.90;99.90
66422;DHT22;53228;51.380;0.098;2023-09-08T00:57:35;17.90;99.90
66422;DHT22;53228;51.380;0.098;2023-09-08T01:00:03;17.90;99.90
66422;DHT22;53228;51.380;0.098;2023-09-08T01:02:33;17.90;99.90
66422;DHT22;53228;51.380;0.098;2023-09-08T01:05:01;17.90;99.90
66422;DHT22;53228;51.380;0.098;2023-09-08T01:07:30;17.90;99.90
66422;DHT22;53228;51.380;0.098;2023-09-08T01:09:59;17.90;99.90
66422;DHT22;53228;51.380;0.098;2023-09-08T01:12:32;17.90;99.90
66422;DHT22;53228;51.380;0.098;2023-09-08T01:15:01;17.80;99.90
66422;DHT22;53228;51.380;0.098;2023-09-08T01:17:30;17.80;99.90
66422;DHT22;53228;51.380;0.098;2023-09-08T01:20:16;17.80;99.90
66422;DHT22;53228;51.380;0.098;2023-09-08T01:25:29;17.80;99.90
66422;DHT22;53228;51.380;0.098;2023-09-08T01:28:01;17.70;99.90
66422;DHT22;53228;51.380;0.098;2023-09-08T01:30:30;17.70;99.90
66422;DHT22;53228;51.380;0.098;2023-09-08T01:33:01;17.70;99.90
66422;DHT22;53228;51.380;0.098;2023-09-08T01:35:29;17.60;99.90
66422;DHT22;53228;51.380;0.098;2023-09-08T01:37:59;17.70;99.90
66422;DHT22;53228;51.380;0.098;2023-09-08T01:40:27;17.70;99.90
66422;DHT22;53228;51.380;0.098;2023-09-08T01:42:55;17.60;99.90
66422;DHT22;53228;51.380;0.098;2023-09-08T01:45:22;17.60;99.90
66422;DHT22;53228;51.380;0.098;2023-09-08T01:47:50;17.60;99.90
66422;DHT22;53228;51.380;0.098;2023-09-08T01:50:18;17.60;99.90
66422;DHT22;53228;51.380;0.098;2023-09-08T01:52:49;17.50;99.90
66422;DHT22;53228;51.380;0.098;2023-09-08T01:55:17;17.50;99.90
66422;DHT22;53228;51.380;0.098;2023-09-08T01:57:45;17.50;99.90
66422;DHT22;53228;51.380;0.098;2023-09-08T02:00:14;17.40;99.90
66422;DHT22;53228;51.380;0.098;2023-09-08T02:02:42;17.40;99.90
66422;DHT22;53228;51.380;0.098;2023-09-08T02:05:09;17.40;99.90
66422;DHT22;53228;51.380;0.098;2023-09-08T02:07:37;17.40;99.90
66422;DHT22;53228;51.380;0.098;2023-09-08T02:10:05;17.30;99.90
66422;DHT22;53228;51.380;0.098;2023-09-08T02:12:33;17.30;99.90
66422;DHT22;53228;51.380;0.098;2023-09-08T02:15:00;17.30;99.90
66422;DHT22;53228;51.380;0.098;2023-09-08T02:17:30;17.30;99.90
66422;DHT22;53228;51.380;0.098;2023-09-08T02:19:58;17.20;99.90
66422;DHT22;53228;51.380;0.098;2023-09-08T02:22:25;16.70;99.90
66422;DHT22;53228;51.380;0.098;2023-09-08T02:24:53;17.20;99.90
66422;DHT22;53228;51.380;0.098;2023-09-08T02:27:20;17.00;99.90
66422;DHT22;53228;51.380;0.098;2023-09-08T02:29:50;17.20;99.90
66422;DHT22;53228;51.380;0.098;2023-09-08T02:32:18;17.20;99.90
66422;DHT22;53228;51.380;0.098;2023-09-08T02:34:46;17.10;99.90
66422;DHT22;53228;51.380;0.098;2023-09-08T02:37:15;17.10;99.90
66422;DHT22;53228;51.380;0.098;2023-09-08T02:39:43;17.10;99.90
66422;DHT22;53228;51.380;0.098;2023-09-08T02:42:11;17.10;99.90
66422;DHT22;53228;51.380;0.098;2023-09-08T02:44:39;17.10;99.90
66422;DHT22;53228;51.380;0.098;2023-09-08T02:47:07;17.00;99.90
66422;DHT22;53228;51.380;0.098;2023-09-08T02:49:37;17.00;99.90
66422;DHT22;53228;51.380;0.098;2023-09-08T02:52:04;17.00;99.90
66422;DHT22;53228;51.380;0.098;2023-09-08T02:54:32;17.00;99.90
66422;DHT22;53228;51.380;0.098;2023-09-08T02:57:00;16.90;99.90
66422;DHT22;53228;51.380;0.098;2023-09-08T02:59:28;16.90;99.90
66422;DHT22;53228;51.380;0.098;2023-09-08T03:01:55;16.90;99.90
66422;DHT22;53228;51.380;0.098;2023-09-08T03:04:24;16.90;99.90
66422;DHT22;53228;51.380;0.098;2023-09-08T03:06:52;16.90;99.90
66422;DHT22;53228;51.380;0.098;2023-09-08T03:09:20;16.90;99.90
66422;DHT22;53228;51.380;0.098;2023-09-08T03:11:48;16.80;99.90
66422;DHT22;53228;51.380;0.098;2023-09-08T03:14:16;16.80;99.90
66422;DHT22;53228;51.380;0.098;2023-09-08T03:16:43;16.80;99.90
66422;DHT22;53228;51.380;0.098;2023-09-08T03:19:11;16.80;99.90
66422;DHT22;53228;51.380;0.098;2023-09-08T03:21:39;16.80;99.90
66422;DHT22;53228;51.380;0.098;2023-09-08T03:24:06;16.80;99.90
66422;DHT22;53228;51.380;0.098;2023-09-08T03:26:34;16.80;99.90
66422;DHT22;53228;51.380;0.098;2023-09-08T03:29:02;16.70;99.90
66422;DHT22;53228;51.380;0.098;2023-09-08T03:31:31;16.70;99.90
66422;DHT22;53228;51.380;0.098;2023-09-08T03:33:59;16.70;99.90
66422;DHT22;53228;51.380;0.098;2023-09-08T03:36:28;16.70;99.90
66422;DHT22;53228;51.380;0.098;2023-09-08T03:38:57;16.70;99.90
66422;DHT22;53228;51.380;0.098;2023-09-08T03:41:26;16.70;99.90
66422;DHT22;53228;51.380;0.098;2023-09-08T03:43:53;16.70;99.90
66422;DHT22;53228;51.380;0.098;2023-09-08T03:46:21;16.60;99.90
66422;DHT22;53228;51.380;0.098;2023-09-08T03:48:49;16.70;99.90
66422;DHT22;53228;51.380;0.098;2023-09-08T03:51:17;16.60;99.90
66422;DHT22;53228;51.380;0.098;2023-09-08T03:53:45;16.60;99.90
66422;DHT22;53228;51.380;0.098;2023-09-08T03:56:13;16.60;99.90
66422;DHT22;53228;51.380;0.098;2023-09-08T03:58:41;16.60;99.90
66422;DHT22;53228;51.380;0.098;2023-09-08T04:01:09;16.50;99.90
66422;DHT22;53228;51.380;0.098;2023-09-08T04:03:36;16.50;99.90
66422;DHT22;53228;51.380;0.098;2023-09-08T04:06:05;16.50;99.90
66422;DHT22;53228;51.380;0.098;2023-09-08T04:08:33;16.40;99.90
66422;DHT22;53228;51.380;0.098;2023-09-08T04:11:00;16.50;99.90
66422;DHT22;53228;51.380;0.098;2023-09-08T04:13:28;16.40;99.90
66422;DHT22;53228;51.380;0.098;2023-09-08T04:15:56;16.40;99.90
66422;DHT22;53228;51.380;0.098;2023-09-08T04:18:25;16.40;99.90
66422;DHT22;53228;51.380;0.098;2023-09-08T04:20:53;16.40;99.90
66422;DHT22;53228;51.380;0.098;2023-09-08T04:23:21;16.40;99.90
66422;DHT22;53228;51.380;0.098;2023-09-08T04:25:48;16.30;99.90
66422;DHT22;53228;51.380;0.098;2023-09-08T04:28:16;16.30;99.90
66422;DHT22;53228;51.380;0.098;2023-09-08T04:30:44;16.30;99.90
66422;DHT22;53228;51.380;0.098;2023-09-08T04:33:11;16.30;99.90
66422;DHT22;53228;51.380;0.098;2023-09-08T04:35:39;16.30;99.90
66422;DHT22;53228;51.380;0.098;2023-09-08T04:38:07;16.30;99.90
66422;DHT22;53228;51.380;0.098;2023-09-08T04:40:35;16.30;99.90
66422;DHT22;53228;51.380;0.098;2023-09-08T04:43:03;16.30;99.90
66422;DHT22;53228;51.380;0.098;2023-09-08T04:45:31;16.30;99.90
66422;DHT22;53228;51.380;0.098;2023-09-08T04:47:59;16.20;99.90
66422;DHT22;53228;51.380;0.098;2023-09-08T04:50:27;16.30;99.90
66422;DHT22;53228;51.380;0.098;2023-09-08T04:52:55;16.20;99.90
66422;DHT22;53228;51.380;0.098;2023-09-08T04:55:23;16.20;99.90
66422;DHT22;53228;51.380;0.098;2023-09-08T04:57:50;16.20;99.90
66422;DHT22;53228;51.380;0.098;2023-09-08T05:00:19;16.20;99.90
66422;DHT22;53228;51.380;0.098;2023-09-08T05:02:47;16.20;99.90
66422;DHT22;53228;51.380;0.098;2023-09-08T05:05:15;16.20;99.90
66422;DHT22;53228;51.380;0.098;2023-09-08T05:07:43;16.20;99.90
66422;DHT22;53228;51.380;0.098;2023-09-08T05:10:10;16.20;99.90
66422;DHT22;53228;51.380;0.098;2023-09-08T05:12:39;16.20;99.90
66422;DHT22;53228;51.380;0.098;2023-09-08T05:15:07;16.20;99.90
66422;DHT22;53228;51.380;0.098;2023-09-08T05:17:45;16.20;99.90
66422;DHT22;53228;51.380;0.098;2023-09-08T05:20:13;16.20;99.90
66422;DHT22;53228;51.380;0.098;2023-09-08T05:22:41;16.20;99.90
66422;DHT22;53228;51.380;0.098;2023-09-08T05:25:09;16.20;99.90
66422;DHT22;53228;51.380;0.098;2023-09-08T05:27:38;16.20;99.90
66422;DHT22;53228;51.380;0.098;2023-09-08T05:30:06;16.10;99.90
66422;DHT22;53228;51.380;0.098;2023-09-08T05:32:35;16.10;99.90
66422;DHT22;53228;51.380;0.098;2023-09-08T05:35:04;16.10;99.90
66422;DHT22;53228;51.380;0.098;2023-09-08T05:37:32;16.10;99.90
66422;DHT22;53228;51.380;0.098;2023-09-08T05:39:59;16.10;99.90
66422;DHT22;53228;51.380;0.098;2023-09-08T05:42:27;16.10;99.90
66422;DHT22;53228;51.380;0.098;2023-09-08T05:44:55;16.10;99.90
66422;DHT22;53228;51.380;0.098;2023-09-08T05:47:23;16.10;99.90
66422;DHT22;53228;51.380;0.098;2023-09-08T05:49:51;16.10;99.90
66422;DHT22;53228;51.380;0.098;2023-09-08T05:52:18;16.20;99.90
66422;DHT22;53228;51.380;0.098;2023-09-08T05:54:47;16.20;99.90
66422;DHT22;53228;51.380;0.098;2023-09-08T05:57:15;16.30;99.90
66422;DHT22;53228;51.380;0.098;2023-09-08T05:59:43;16.30;99.90
66422;DHT22;53228;51.380;0.098;2023-09-08T06:02:11;16.40;99.90
66422;DHT22;53228;51.380;0.098;2023-09-08T06:04:39;16.40;99.90
66422;DHT22;53228;51.380;0.098;2023-09-08T06:07:07;16.50;99.90
66422;DHT22;53228;51.380;0.098;2023-09-08T06:09:35;16.60;99.90
66422;DHT22;53228;51.380;0.098;2023-09-08T06:12:03;16.70;99.90
66422;DHT22;53228;51.380;0.098;2023-09-08T06:14:31;16.70;99.90
66422;DHT22;53228;51.380;0.098;2023-09-08T06:16:59;16.80;99.90
66422;DHT22;53228;51.380;0.098;2023-09-08T06:19:27;16.80;99.90
66422;DHT22;53228;51.380;0.098;2023-09-08T06:21:55;16.90;99.90
66422;DHT22;53228;51.380;0.098;2023-09-08T06:24:23;17.00;99.90
66422;DHT22;53228;51.380;0.098;2023-09-08T06:26:52;17.00;99.90
66422;DHT22;53228;51.380;0.098;2023-09-08T06:29:20;17.00;99.90
66422;DHT22;53228;51.380;0.098;2023-09-08T06:31:47;17.10;99.90
66422;DHT22;53228;51.380;0.098;2023-09-08T06:34:15;17.20;99.90
66422;DHT22;53228;51.380;0.098;2023-09-08T06:36:44;17.20;99.90
66422;DHT22;53228;51.380;0.098;2023-09-08T06:39:11;17.30;99.90
66422;DHT22;53228;51.380;0.098;2023-09-08T06:41:40;17.30;99.90
66422;DHT22;53228;51.380;0.098;2023-09-08T06:44:11;17.40;99.90
66422;DHT22;53228;51.380;0.098;2023-09-08T06:46:39;17.40;99.90
66422;DHT22;53228;51.380;0.098;2023-09-08T06:49:07;17.50;99.90
66422;DHT22;53228;51.380;0.098;2023-09-08T06:51:35;17.60;99.90
66422;DHT22;53228;51.380;0.098;2023-09-08T06:54:02;17.60;99.90
66422;DHT22;53228;51.380;0.098;2023-09-08T06:56:37;17.70;99.90
66422;DHT22;53228;51.380;0.098;2023-09-08T06:59:06;17.80;99.90
66422;DHT22;53228;51.380;0.098;2023-09-08T07:01:35;17.90;99.90
66422;DHT22;53228;51.380;0.098;2023-09-08T07:04:03;17.90;99.90
66422;DHT22;53228;51.380;0.098;2023-09-08T07:06:32;18.00;99.90
66422;DHT22;53228;51.380;0.098;2023-09-08T07:08:59;18.10;99.90
66422;DHT22;53228;51.380;0.098;2023-09-08T07:11:28;18.10;99.90
66422;DHT22;53228;51.380;0.098;2023-09-08T07:13:57;18.20;99.90
66422;DHT22;53228;51.380;0.098;2023-09-08T07:16:24;18.30;99.90
66422;DHT22;53228;51.380;0.098;2023-09-08T07:18:52;18.30;99.90
66422;DHT22;53228;51.380;0.098;2023-09-08T07:21:20;18.40;99.90
66422;DHT22;53228;51.380;0.098;2023-09-08T07:23:47;18.50;99.90
66422;DHT22;53228;51.380;0.098;2023-09-08T07:26:16;18.50;99.90
66422;DHT22;53228;51.380;0.098;2023-09-08T07:28:44;18.60;99.90
66422;DHT22;53228;51.380;0.098;2023-09-08T07:31:14;18.60;99.90
66422;DHT22;53228;51.380;0.098;2023-09-08T07:33:45;18.70;99.90
66422;DHT22;53228;51.380;0.098;2023-09-08T07:36:13;18.80;99.90
66422;DHT22;53228;51.380;0.098;2023-09-08T07:38:43;18.90;99.90
66422;DHT22;53228;51.380;0.098;2023-09-08T07:41:11;19.00;99.90
66422;DHT22;53228;51.380;0.098;2023-09-08T07:43:39;19.00;99.90
66422;DHT22;53228;51.380;0.098;2023-09-08T07:46:11;19.10;99.90
66422;DHT22;53228;51.380;0.098;2023-09-08T07:48:39;19.20;99.90
66422;DHT22;53228;51.380;0.098;2023-09-08T07:51:07;19.40;99.90
66422;DHT22;53228;51.380;0.098;2023-09-08T07:53:34;19.50;99.90
66422;DHT22;53228;51.380;0.098;2023-09-08T07:56:02;19.60;99.90
66422;DHT22;53228;51.380;0.098;2023-09-08T07:58:31;19.80;99.90
66422;DHT22;53228;51.380;0.098;2023-09-08T08:01:00;20.00;99.90
66422;DHT22;53228;51.380;0.098;2023-09-08T08:03:28;20.10;99.90
66422;DHT22;53228;51.380;0.098;2023-09-08T08:05:57;20.20;99.90
66422;DHT22;53228;51.380;0.098;2023-09-08T08:08:25;20.30;99.90
66422;DHT22;53228;51.380;0.098;2023-09-08T08:10:53;20.40;99.90
66422;DHT22;53228;51.380;0.098;2023-09-08T08:13:21;20.50;99.90
66422;DHT22;53228;51.380;0.098;2023-09-08T08:15:48;20.60;99.90
66422;DHT22;53228;51.380;0.098;2023-09-08T08:18:17;20.70;99.90
66422;DHT22;53228;51.380;0.098;2023-09-08T08:20:45;20.80;99.90
66422;DHT22;53228;51.380;0.098;2023-09-08T08:23:14;20.80;99.90
66422;DHT22;53228;51.380;0.098;2023-09-08T08:25:42;20.90;99.90
66422;DHT22;53228;51.380;0.098;2023-09-08T08:28:09;20.90;99.90
66422;DHT22;53228;51.380;0.098;2023-09-08T08:30:37;20.90;99.90
66422;DHT22;53228;51.380;0.098;2023-09-08T08:33:05;20.90;99.90
66422;DHT22;53228;51.380;0.098;2023-09-08T08:35:32;21.00;99.90
66422;DHT22;53228;51.380;0.098;2023-09-08T08:38:00;21.00;99.90
66422;DHT22;53228;51.380;0.098;2023-09-08T08:40:28;21.00;99.90
66422;DHT22;53228;51.380;0.098;2023-09-08T08:42:57;21.10;99.90
66422;DHT22;53228;51.380;0.098;2023-09-08T08:45:29;21.10;99.90
66422;DHT22;53228;51.380;0.098;2023-09-08T08:47:57;21.20;99.90
66422;DHT22;53228;51.380;0.098;2023-09-08T08:50:26;21.30;99.90
66422;DHT22;53228;51.380;0.098;2023-09-08T08:52:54;21.40;99.90
66422;DHT22;53228;51.380;0.098;2023-09-08T08:55:26;21.40;99.90
66422;DHT22;53228;51.380;0.098;2023-09-08T08:58:00;21.50;99.90
66422;DHT22;53228;51.380;0.098;2023-09-08T09:00:30;21.70;99.90
66422;DHT22;53228;51.380;0.098;2023-09-08T09:03:01;21.80;99.90
66422;DHT22;53228;51.380;0.098;2023-09-08T09:05:42;22.00;99.90
66422;DHT22;53228;51.380;0.098;2023-09-08T09:08:16;22.10;99.90
66422;DHT22;53228;51.380;0.098;2023-09-08T09:10:43;22.30;99.90
66422;DHT22;53228;51.380;0.098;2023-09-08T09:13:11;22.40;99.90
66422;DHT22;53228;51.380;0.098;2023-09-08T09:15:39;22.60;99.90
66422;DHT22;53228;51.380;0.098;2023-09-08T09:18:08;22.60;99.90
66422;DHT22;53228;51.380;0.098;2023-09-08T09:20:36;22.80;99.90
66422;DHT22;53228;51.380;0.098;2023-09-08T09:23:04;22.90;99.90
66422;DHT22;53228;51.380;0.098;2023-09-08T09:25:31;23.00;99.90
66422;DHT22;53228;51.380;0.098;2023-09-08T09:28:01;23.10;99.90
66422;DHT22;53228;51.380;0.098;2023-09-08T09:30:47;23.30;99.90
66422;DHT22;53228;51.380;0.098;2023-09-08T09:33:16;23.40;99.90
66422;DHT22;53228;51.380;0.098;2023-09-08T09:35:52;23.50;99.90
66422;DHT22;53228;51.380;0.098;2023-09-08T09:38:21;23.60;99.90
66422;DHT22;53228;51.380;0.098;2023-09-08T09:40:49;23.70;99.90
66422;DHT22;53228;51.380;0.098;2023-09-08T09:43:21;23.80;99.90
66422;DHT22;53228;51.380;0.098;2023-09-08T09:45:49;23.90;99.90
66422;DHT22;53228;51.380;0.098;2023-09-08T09:48:19;23.90;99.90
66422;DHT22;53228;51.380;0.098;2023-09-08T09:50:47;24.00;99.90
66422;DHT22;53228;51.380;0.098;2023-09-08T09:53:17;24.00;99.90
66422;DHT22;53228;51.380;0.098;2023-09-08T09:55:45;24.10;99.90
66422;DHT22;53228;51.380;0.098;2023-09-08T09:58:13;24.20;99.90
66422;DHT22;53228;51.380;0.098;2023-09-08T10:00:43;24.20;99.90
66422;DHT22;53228;51.380;0.098;2023-09-08T10:03:17;24.30;99.90
66422;DHT22;53228;51.380;0.098;2023-09-08T10:05:46;24.30;99.90
66422;DHT22;53228;51.380;0.098;2023-09-08T10:08:15;24.30;99.90
66422;DHT22;53228;51.380;0.098;2023-09-08T10:10:45;24.30;99.90
66422;DHT22;53228;51.380;0.098;2023-09-08T10:13:14;24.30;99.90
66422;DHT22;53228;51.380;0.098;2023-09-08T10:15:46;24.30;99.90
66422;DHT22;53228;51.380;0.098;2023-09-08T10:18:19;24.20;99.90
66422;DHT22;53228;51.380;0.098;2023-09-08T10:20:49;24.20;99.90
66422;DHT22;53228;51.380;0.098;2023-09-08T10:23:35;24.20;99.90
66422;DHT22;53228;51.380;0.098;2023-09-08T10:26:07;24.20;99.90
66422;DHT22;53228;51.380;0.098;2023-09-08T10:28:37;24.20;99.90
66422;DHT22;53228;51.380;0.098;2023-09-08T10:31:06;24.20;99.90
66422;DHT22;53228;51.380;0.098;2023-09-08T10:33:35;24.10;99.90
66422;DHT22;53228;51.380;0.098;2023-09-08T10:36:03;24.10;99.90
66422;DHT22;53228;51.380;0.098;2023-09-08T10:38:33;24.10;99.90
66422;DHT22;53228;51.380;0.098;2023-09-08T10:44:07;24.00;99.90
66422;DHT22;53228;51.380;0.098;2023-09-08T10:46:36;24.00;99.90
66422;DHT22;53228;51.380;0.098;2023-09-08T10:49:05;24.00;99.90
66422;DHT22;53228;51.380;0.098;2023-09-08T10:51:35;24.00;99.90
66422;DHT22;53228;51.380;0.098;2023-09-08T10:54:05;24.00;99.90
66422;DHT22;53228;51.380;0.098;2023-09-08T10:56:48;24.10;99.90
66422;DHT22;53228;51.380;0.098;2023-09-08T10:59:28;24.20;99.90
66422;DHT22;53228;51.380;0.098;2023-09-08T11:01:56;24.40;99.90
66422;DHT22;53228;51.380;0.098;2023-09-08T11:04:24;24.50;99.90
66422;DHT22;53228;51.380;0.098;2023-09-08T11:06:55;24.70;99.90
66422;DHT22;53228;51.380;0.098;2023-09-08T11:09:23;24.90;99.90
66422;DHT22;53228;51.380;0.098;2023-09-08T11:11:51;25.10;99.90
66422;DHT22;53228;51.380;0.098;2023-09-08T11:14:18;25.20;99.90
66422;DHT22;53228;51.380;0.098;2023-09-08T11:16:46;25.40;99.90
66422;DHT22;53228;51.380;0.098;2023-09-08T11:19:14;25.70;99.90
66422;DHT22;53228;51.380;0.098;2023-09-08T11:21:43;26.20;99.90
66422;DHT22;53228;51.380;0.098;2023-09-08T11:24:11;26.70;99.90
66422;DHT22;53228;51.380;0.098;2023-09-08T11:26:43;27.10;99.90
66422;DHT22;53228;51.380;0.098;2023-09-08T11:29:14;27.50;99.90
66422;DHT22;53228;51.380;0.098;2023-09-08T11:31:42;27.70;99.90
66422;DHT22;53228;51.380;0.098;2023-09-08T11:34:11;27.90;99.90
66422;DHT22;53228;51.380;0.098;2023-09-08T11:36:41;28.10;99.90
66422;DHT22;53228;51.380;0.098;2023-09-08T11:39:09;28.30;99.90
66422;DHT22;53228;51.380;0.098;2023-09-08T11:41:37;28.50;99.90
66422;DHT22;53228;51.380;0.098;2023-09-08T11:44:05;28.70;99.90
66422;DHT22;53228;51.380;0.098;2023-09-08T11:46:33;28.80;99.90
66422;DHT22;53228;51.380;0.098;2023-09-08T11:49:04;29.10;99.90
66422;DHT22;53228;51.380;0.098;2023-09-08T11:51:31;29.20;99.90
66422;DHT22;53228;51.380;0.098;2023-09-08T11:53:59;29.30;99.90
66422;DHT22;53228;51.380;0.098;2023-09-08T11:56:28;29.40;99.90
66422;DHT22;53228;51.380;0.098;2023-09-08T11:58:56;29.40;99.90
66422;DHT22;53228;51.380;0.098;2023-09-08T12:01:24;29.30;99.90
66422;DHT22;53228;51.380;0.098;2023-09-08T12:03:54;29.10;99.90
66422;DHT22;53228;51.380;0.098;2023-09-08T12:06:28;28.90;99.90
66422;DHT22;53228;51.380;0.098;2023-09-08T12:09:00;28.90;99.90
66422;DHT22;53228;51.380;0.098;2023-09-08T12:11:33;28.90;99.90
66422;DHT22;53228;51.380;0.098;2023-09-08T12:14:07;28.90;99.90
66422;DHT22;53228;51.380;0.098;2023-09-08T12:16:35;28.80;99.90
66422;DHT22;53228;51.380;0.098;2023-09-08T12:19:03;28.70;99.90
66422;DHT22;53228;51.380;0.098;2023-09-08T12:21:53;28.70;99.90
66422;DHT22;53228;51.380;0.098;2023-09-08T12:24:48;28.70;99.90
66422;DHT22;53228;51.380;0.098;2023-09-08T12:27:17;28.60;99.90
66422;DHT22;53228;51.380;0.098;2023-09-08T12:32:21;28.60;99.90
66422;DHT22;53228;51.380;0.098;2023-09-08T12:34:49;28.60;99.90
66422;DHT22;53228;51.380;0.098;2023-09-08T12:37:24;28.70;99.90
66422;DHT22;53228;51.380;0.098;2023-09-08T12:39:52;28.60;99.90
66422;DHT22;53228;51.380;0.098;2023-09-08T12:42:20;28.40;99.90
66422;DHT22;53228;51.380;0.098;2023-09-08T12:44:47;28.10;99.90
66422;DHT22;53228;51.380;0.098;2023-09-08T12:47:15;27.90;99.90
66422;DHT22;53228;51.380;0.098;2023-09-08T12:49:43;27.80;99.90
66422;DHT22;53228;51.380;0.098;2023-09-08T12:52:11;27.60;99.90
66422;DHT22;53228;51.380;0.098;2023-09-08T12:54:38;27.50;99.90
66422;DHT22;53228;51.380;0.098;2023-09-08T12:57:06;27.50;99.90
66422;DHT22;53228;51.380;0.098;2023-09-08T12:59:34;27.40;99.90
66422;DHT22;53228;51.380;0.098;2023-09-08T13:02:01;27.40;99.90
66422;DHT22;53228;51.380;0.098;2023-09-08T13:04:29;27.50;99.90
66422;DHT22;53228;51.380;0.098;2023-09-08T13:06:57;27.70;99.90
66422;DHT22;53228;51.380;0.098;2023-09-08T13:09:26;27.70;99.90
66422;DHT22;53228;51.380;0.098;2023-09-08T13:11:53;27.90;99.90
66422;DHT22;53228;51.380;0.098;2023-09-08T13:14:21;28.10;99.90
66422;DHT22;53228;51.380;0.098;2023-09-08T13:16:48;28.20;99.90
66422;DHT22;53228;51.380;0.098;2023-09-08T13:19:16;28.20;99.90
66422;DHT22;53228;51.380;0.098;2023-09-08T13:21:44;28.20;99.90
66422;DHT22;53228;51.380;0.098;2023-09-08T13:24:11;28.20;99.90
66422;DHT22;53228;51.380;0.098;2023-09-08T13:26:40;28.20;99.90
66422;DHT22;53228;51.380;0.098;2023-09-08T13:29:08;28.20;99.90
66422;DHT22;53228;51.380;0.098;2023-09-08T13:31:36;28.30;99.90
66422;DHT22;53228;51.380;0.098;2023-09-08T13:34:03;28.30;99.90
66422;DHT22;53228;51.380;0.098;2023-09-08T13:36:31;28.40;99.90
66422;DHT22;53228;51.380;0.098;2023-09-08T13:38:59;28.40;99.90
66422;DHT22;53228;51.380;0.098;2023-09-08T13:44:12;28.40;99.90
66422;DHT22;53228;51.380;0.098;2023-09-08T13:46:39;28.40;99.90
66422;DHT22;53228;51.380;0.098;2023-09-08T13:49:08;28.40;99.90
66422;DHT22;53228;51.380;0.098;2023-09-08T13:51:36;28.40;99.90
66422;DHT22;53228;51.380;0.098;2023-09-08T13:54:06;28.40;99.90
66422;DHT22;53228;51.380;0.098;2023-09-08T13:56:34;28.40;99.90
66422;DHT22;53228;51.380;0.098;2023-09-08T13:59:02;28.40;99.90
66422;DHT22;53228;51.380;0.098;2023-09-08T14:01:34;28.40;99.90
66422;DHT22;53228;51.380;0.098;2023-09-08T14:04:07;28.40;99.90
66422;DHT22;53228;51.380;0.098;2023-09-08T14:06:37;28.40;99.90
66422;DHT22;53228;51.380;0.098;2023-09-08T14:09:07;28.40;99.90
66422;DHT22;53228;51.380;0.098;2023-09-08T14:11:55;28.30;99.90
66422;DHT22;53228;51.380;0.098;2023-09-08T14:14:43;28.30;99.90
66422;DHT22;53228;51.380;0.098;2023-09-08T14:17:10;28.30;99.90
66422;DHT22;53228;51.380;0.098;2023-09-08T14:19:38;28.40;99.90
66422;DHT22;53228;51.380;0.098;2023-09-08T14:22:05;28.30;99.90
66422;DHT22;53228;51.380;0.098;2023-09-08T14:24:33;28.30;99.90
66422;DHT22;53228;51.380;0.098;2023-09-08T14:27:01;28.30;99.90
66422;DHT22;53228;51.380;0.098;2023-09-08T14:29:30;28.20;99.90
66422;DHT22;53228;51.380;0.098;2023-09-08T14:31:57;28.20;99.90
66422;DHT22;53228;51.380;0.098;2023-09-08T14:34:25;28.20;99.90
66422;DHT22;53228;51.380;0.098;2023-09-08T14:36:52;28.10;99.90
66422;DHT22;53228;51.380;0.098;2023-09-08T14:39:20;28.10;99.90
66422;DHT22;53228;51.380;0.098;2023-09-08T14:41:49;28.10;99.90
66422;DHT22;53228;51.380;0.098;2023-09-08T14:44:21;28.00;99.90
66422;DHT22;53228;51.380;0.098;2023-09-08T14:46:50;28.00;99.90
66422;DHT22;53228;51.380;0.098;2023-09-08T14:49:18;28.00;99.90
66422;DHT22;53228;51.380;0.098;2023-09-08T14:51:46;28.00;99.90
66422;DHT22;53228;51.380;0.098;2023-09-08T14:54:13;28.10;99.90
66422;DHT22;53228;51.380;0.098;2023-09-08T14:56:41;28.10;99.90
66422;DHT22;53228;51.380;0.098;2023-09-08T14:59:09;28.00;99.90
66422;DHT22;53228;51.380;0.098;2023-09-08T15:01:36;27.90;99.90
66422;DHT22;53228;51.380;0.098;2023-09-08T15:04:06;27.90;99.90
66422;DHT22;53228;51.380;0.098;2023-09-08T15:06:33;27.80;99.90
66422;DHT22;53228;51.380;0.098;2023-09-08T15:09:01;27.80;99.90
66422;DHT22;53228;51.380;0.098;2023-09-08T15:11:29;27.80;99.90
66422;DHT22;53228;51.380;0.098;2023-09-08T15:13:56;27.70;99.90
66422;DHT22;53228;51.380;0.098;2023-09-08T15:16:24;27.60;99.90
66422;DHT22;53228;51.380;0.098;2023-09-08T15:18:51;27.60;99.90
66422;DHT22;53228;51.380;0.098;2023-09-08T15:21:21;27.60;99.90
66422;DHT22;53228;51.380;0.098;2023-09-08T15:23:54;27.50;99.90
66422;DHT22;53228;51.380;0.098;2023-09-08T15:26:22;27.50;99.90
66422;DHT22;53228;51.380;0.098;2023-09-08T15:28:50;27.40;99.90
66422;DHT22;53228;51.380;0.098;2023-09-08T15:31:17;27.40;99.90
66422;DHT22;53228;51.380;0.098;2023-09-08T15:33:45;27.40;99.90
66422;DHT22;53228;51.380;0.098;2023-09-08T15:36:13;27.30;99.90
66422;DHT22;53228;51.380;0.098;2023-09-08T15:38:41;27.20;99.90
66422;DHT22;53228;51.380;0.098;2023-09-08T15:43:40;27.20;99.90
66422;DHT22;53228;51.380;0.098;2023-09-08T15:46:08;27.20;99.90
66422;DHT22;53228;51.380;0.098;2023-09-08T15:48:37;27.20;99.90
66422;DHT22;53228;51.380;0.098;2023-09-08T15:51:06;27.20;99.90
66422;DHT22;53228;51.380;0.098;2023-09-08T15:53:34;27.20;99.90